sensor_id;sensor_type;location;lat;lon;timestamp;temperature;humidity
34873;DHT22;21084;51.098;14.506;2022-09-29T00:00:48;2.80;99.90
34873;DHT22;21084;51.098;14.506;2022-09-29T00:03:17;2.70;99.90
34873;DHT22;21084;51.098;14.506;2022-09-29T00:05:47;2.70;99.90
34873;DHT22;21084;51.098;14.506;2022-09-29T00:08:17;2.60;99.90
34873;DHT22;21084;51.098;14.506;2022-09-29T00:10:45;2.60;99.90
34873;DHT22;21084;51.098;14.506;2022-09-29T00:13:13;2.60;99.90
34873;DHT22;21084;51.098;14.506;2022-09-29T00:15:43;2.60;99.90
34873;DHT22;21084;51.098;14.506;2022-09-29T00:18:11;2.50;99.90
34873;DHT22;21084;51.098;14.506;2022-09-29T00:20:40;2.60;99.90
34873;DHT22;21084;51.098;14.506;2022-09-29T00:23:08;2.60;99.90
34873;DHT22;21084;51.098;14.506;2022-09-29T00:25:37;2.60;99.90
34873;DHT22;21084;51.098;14.506;2022-09-29T00:28:04;2.60;99.90
34873;DHT22;21084;51.098;14.506;2022-09-29T00:30:32;2.60;99.90
34873;DHT22;21084;51.098;14.506;2022-09-29T00:33:02;2.60;99.90
34873;DHT22;21084;51.098;14.506;2022-09-29T00:35:30;2.60;99.90
34873;DHT22;21084;51.098;14.506;2022-09-29T00:37:58;2.60;99.90
34873;DHT22;21084;51.098;14.506;2022-09-29T00:40:26;2.70;99.90
34873;DHT22;21084;51.098;14.506;2022-09-29T00:42:54;2.60;99.90
34873;DHT22;21084;51.098;14.506;2022-09-29T00:45:22;2.60;99.90
34873;DHT22;21084;51.098;14.506;2022-09-29T00:48:01;2.60;99.90
34873;DHT22;21084;51.098;14.506;2022-09-29T00:50:38;2.60;99.90
34873;DHT22;21084;51.098;14.506;2022-09-29T00:53:10;2.60;99.90
34873;DHT22;21084;51.098;14.506;2022-09-29T00:55:49;2.60;99.90
34873;DHT22;21084;51.098;14.506;2022-09-29T00:58:23;2.60;99.90
34873;DHT22;21084;51.098;14.506;2022-09-29T01:00:52;2.60;99.90
34873;DHT22;21084;51.098;14.506;2022-09-29T01:03:23;2.60;99.90
34873;DHT22;21084;51.098;14.506;2022-09-29T01:05:57;2.70;99.90
34873;DHT22;21084;51.098;14.506;2022-09-29T01:08:30;2.70;99.90
34873;DHT22;21084;51.098;14.506;2022-09-29T01:11:00;2.70;99.90
34873;DHT22;21084;51.098;14.506;2022-09-29T01:13:28;2.70;99.90
34873;DHT22;21084;51.098;14.506;2022-09-29T01:15:58;2.70;99.90
34873;DHT22;21084;51.098;14.506;2022-09-29T01:18:26;2.80;99.90
34873;DHT22;21084;51.098;14.506;2022-09-29T01:21:03;2.80;99.90
34873;DHT22;21084;51.098;14.506;2022-09-29T01:27:08;2.80;99.90
34873;DHT22;21084;51.098;14.506;2022-09-29T01:29:53;2.80;99.90
34873;DHT22;21084;51.098;14.506;2022-09-29T01:32:32;2.90;99.90
34873;DHT22;21084;51.098;14.506;2022-09-29T01:35:06;2.80;99.90
34873;DHT22;21084;51.098;14.506;2022-09-29T01:37:46;2.80;99.90
34873;DHT22;21084;51.098;14.506;2022-09-29T01:40:20;2.80;99.90
34873;DHT22;21084;51.098;14.506;2022-09-29T01:42:53;2.80;99.90
34873;DHT22;21084;51.098;14.506;2022-09-29T01:45:25;2.80;99.90
34873;DHT22;21084;51.098;14.506;2022-09-29T01:47:59;2.80;99.90
34873;DHT22;21084;51.098;14.506;2022-09-29T01:50:30;2.80;99.90
34873;DHT22;21084;51.098;14.506;2022-09-29T01:53:03;2.80;99.90
34873;DHT22;21084;51.098;14.506;2022-09-29T01:55:37;2.70;99.90
34873;DHT22;21084;51.098;14.506;2022-09-29T01:58:12;2.70;99.90
34873;DHT22;21084;51.098;14.506;2022-09-29T02:00:47;2.70;99.90
34873;DHT22;21084;51.098;14.506;2022-09-29T02:03:20;2.70;99.90
34873;DHT22;21084;51.098;14.506;2022-09-29T02:05:51;2.70;99.90
34873;DHT22;21084;51.098;14.506;2022-09-29T02:08:25;2.70;99.90
34873;DHT22;21084;51.098;14.506;2022-09-29T02:11:02;2.70;99.90
34873;DHT22;21084;51.098;14.506;2022-09-29T02:13:33;2.70;99.90
34873;DHT22;21084;51.098;14.506;2022-09-29T02:16:03;2.70;99.90
34873;DHT22;21084;51.098;14.506;2022-09-29T02:18:38;2.70;99.90
34873;DHT22;21084;51.098;14.506;2022-09-29T02:21:08;2.60;99.90
34873;DHT22;21084;51.098;14.506;2022-09-29T02:23:36;2.60;99.90
34873;DHT22;21084;51.098;14.506;2022-09-29T02:26:04;2.60;99.90
34873;DHT22;21084;51.098;14.506;2022-09-29T02:28:32;2.60;99.90
34873;DHT22;21084;51.098;14.506;2022-09-29T02:31:00;2.60;99.90
34873;DHT22;21084;51.098;14.506;2022-09-29T02:33:29;2.50;99.90
34873;DHT22;21084;51.098;14.506;2022-09-29T02:36:07;2.50;99.90
34873;DHT22;21084;51.098;14.506;2022-09-29T02:39:10;2.50;99.90
34873;DHT22;21084;51.098;14.506;2022-09-29T02:41:49;2.50;99.90
34873;DHT22;21084;51.098;14.506;2022-09-29T02:44:40;2.50;99.90
34873;DHT22;21084;51.098;14.506;2022-09-29T02:47:26;2.50;99.90
34873;DHT22;21084;51.098;14.506;2022-09-29T02:50:11;2.50;99.90
34873;DHT22;21084;51.098;14.506;2022-09-29T02:52:51;2.50;99.90
34873;DHT22;21084;51.098;14.506;2022-09-29T02:55:26;2.50;99.90
34873;DHT22;21084;51.098;14.506;2022-09-29T02:57:58;2.50;99.90
34873;DHT22;21084;51.098;14.506;2022-09-29T03:00:29;2.50;99.90
34873;DHT22;21084;51.098;14.506;2022-09-29T03:02:57;2.50;99.90
34873;DHT22;21084;51.098;14.506;2022-09-29T03:05:25;2.50;99.90
34873;DHT22;21084;51.098;14.506;2022-09-29T03:07:54;2.50;99.90
34873;DHT22;21084;51.098;14.506;2022-09-29T03:10:22;2.50;99.90
34873;DHT22;21084;51.098;14.506;2022-09-29T03:12:56;2.50;99.90
34873;DHT22;21084;51.098;14.506;2022-09-29T03:15:24;2.50;99.90
34873;DHT22;21084;51.098;14.506;2022-09-29T03:17:54;2.50;99.90
34873;DHT22;21084;51.098;14.506;2022-09-29T03:20:23;2.50;99.90
34873;DHT22;21084;51.098;14.506;2022-09-29T03:22:56;2.50;99.90
34873;DHT22;21084;51.098;14.506;2022-09-29T03:25:24;2.40;99.90
34873;DHT22;21084;51.098;14.506;2022-09-29T03:27:52;2.40;99.90
34873;DHT22;21084;51.098;14.506;2022-09-29T03:30:21;2.40;99.90
34873;DHT22;21084;51.098;14.506;2022-09-29T03:32:49;2.40;99.90
34873;DHT22;21084;51.098;14.506;2022-09-29T03:35:21;2.40;99.90
34873;DHT22;21084;51.098;14.506;2022-09-29T03:37:49;2.40;99.90
34873;DHT22;21084;51.098;14.506;2022-09-29T03:40:18;2.40;99.90
34873;DHT22;21084;51.098;14.506;2022-09-29T03:42:47;2.40;99.90
34873;DHT22;21084;51.098;14.506;2022-09-29T03:45:15;2.30;99.90
34873;DHT22;21084;51.098;14.506;2022-09-29T03:47:42;2.30;99.90
34873;DHT22;21084;51.098;14.506;2022-09-29T03:50:11;2.30;99.90
34873;DHT22;21084;51.098;14.506;2022-09-29T03:52:39;2.30;99.90
34873;DHT22;21084;51.098;14.506;2022-09-29T03:55:08;2.30;99.90
34873;DHT22;21084;51.098;14.506;2022-09-29T03:57:37;2.40;99.90
34873;DHT22;21084;51.098;14.506;2022-09-29T04:00:06;2.30;99.90
34873;DHT22;21084;51.098;14.506;2022-09-29T04:02:34;2.30;99.90
34873;DHT22;21084;51.098;14.506;2022-09-29T04:05:02;2.30;99.90
34873;DHT22;21084;51.098;14.506;2022-09-29T04:07:30;2.30;99.90
34873;DHT22;21084;51.098;14.506;2022-09-29T04:09:58;2.20;99.90
34873;DHT22;21084;51.098;14.506;2022-09-29T04:12:26;2.20;99.90
34873;DHT22;21084;51.098;14.506;2022-09-29T04:14:55;2.20;99.90
34873;DHT22;21084;51.098;14.506;2022-09-29T04:17:24;2.20;99.90
34873;DHT22;21084;51.098;14.506;2022-09-29T04:19:52;2.20;99.90
34873;DHT22;21084;51.098;14.506;2022-09-29T04:22:20;2.20;99.90
34873;DHT22;21084;51.098;14.506;2022-09-29T04:24:48;2.20;99.90
34873;DHT22;21084;51.098;14.506;2022-09-29T04:27:16;2.20;99.90
34873;DHT22;21084;51.098;14.506;2022-09-29T04:29:44;2.20;99.90
34873;DHT22;21084;51.098;14.506;2022-09-29T04:32:14;2.20;99.90
34873;DHT22;21084;51.098;14.506;2022-09-29T04:34:42;2.20;99.90
34873;DHT22;21084;51.098;14.506;2022-09-29T04:37:10;2.20;99.90
34873;DHT22;21084;51.098;14.506;2022-09-29T04:39:38;2.30;99.90
34873;DHT22;21084;51.098;14.506;2022-09-29T04:42:06;2.30;99.90
34873;DHT22;21084;51.098;14.506;2022-09-29T04:44:34;2.40;99.90
34873;DHT22;21084;51.098;14.506;2022-09-29T04:47:02;2.50;99.90
34873;DHT22;21084;51.098;14.506;2022-09-29T04:49:31;2.50;99.90
34873;DHT22;21084;51.098;14.506;2022-09-29T04:51:59;2.50;99.90
34873;DHT22;21084;51.098;14.506;2022-09-29T04:54:29;2.50;99.90
34873;DHT22;21084;51.098;14.506;2022-09-29T04:57:03;2.60;99.90
34873;DHT22;21084;51.098;14.506;2022-09-29T04:59:31;2.70;99.90
34873;DHT22;21084;51.098;14.506;2022-09-29T05:01:59;2.80;99.90
34873;DHT22;21084;51.098;14.506;2022-09-29T05:04:27;2.80;99.90
34873;DHT22;21084;51.098;14.506;2022-09-29T05:06:56;2.90;99.90
34873;DHT22;21084;51.098;14.506;2022-09-29T05:09:24;2.90;99.90
34873;DHT22;21084;51.098;14.506;2022-09-29T05:11:58;3.00;99.90
34873;DHT22;21084;51.098;14.506;2022-09-29T05:14:27;3.10;99.90
34873;DHT22;21084;51.098;14.506;2022-09-29T05:16:55;3.20;99.90
34873;DHT22;21084;51.098;14.506;2022-09-29T05:19:23;3.20;99.90
34873;DHT22;21084;51.098;14.506;2022-09-29T05:21:51;3.30;99.90
34873;DHT22;21084;51.098;14.506;2022-09-29T05:24:20;3.40;99.90
34873;DHT22;21084;51.098;14.506;2022-09-29T05:26:48;3.40;99.90
34873;DHT22;21084;51.098;14.506;2022-09-29T05:29:21;3.50;99.90
34873;DHT22;21084;51.098;14.506;2022-09-29T05:31:50;3.60;99.90
34873;DHT22;21084;51.098;14.506;2022-09-29T05:34:18;3.70;99.90
34873;DHT22;21084;51.098;14.506;2022-09-29T05:36:46;3.80;99.90
34873;DHT22;21084;51.098;14.506;2022-09-29T05:39:14;3.80;99.90
34873;DHT22;21084;51.098;14.506;2022-09-29T05:41:44;3.90;99.90
34873;DHT22;21084;51.098;14.506;2022-09-29T05:44:12;4.00;99.90
34873;DHT22;21084;51.098;14.506;2022-09-29T05:46:40;4.10;99.90
34873;DHT22;21084;51.098;14.506;2022-09-29T05:49:08;4.10;99.90
34873;DHT22;21084;51.098;14.506;2022-09-29T05:51:36;4.20;99.90
34873;DHT22;21084;51.098;14.506;2022-09-29T05:54:04;4.30;99.90
34873;DHT22;21084;51.098;14.506;2022-09-29T05:56:32;4.40;99.90
34873;DHT22;21084;51.098;14.506;2022-09-29T05:59:01;4.50;99.90
34873;DHT22;21084;51.098;14.506;2022-09-29T06:01:31;4.50;99.90
34873;DHT22;21084;51.098;14.506;2022-09-29T06:04:00;4.60;99.90
34873;DHT22;21084;51.098;14.506;2022-09-29T06:06:28;4.70;99.90
34873;DHT22;21084;51.098;14.506;2022-09-29T06:08:57;4.80;99.90
34873;DHT22;21084;51.098;14.506;2022-09-29T06:11:27;4.90;99.90
34873;DHT22;21084;51.098;14.506;2022-09-29T06:13:55;5.00;99.90
34873;DHT22;21084;51.098;14.506;2022-09-29T06:16:26;5.20;99.90
34873;DHT22;21084;51.098;14.506;2022-09-29T06:18:54;5.30;99.90
34873;DHT22;21084;51.098;14.506;2022-09-29T06:21:24;5.50;99.90
34873;DHT22;21084;51.098;14.506;2022-09-29T06:23:53;5.80;99.90
34873;DHT22;21084;51.098;14.506;2022-09-29T06:26:22;6.00;99.90
34873;DHT22;21084;51.098;14.506;2022-09-29T06:28:51;6.20;99.90
34873;DHT22;21084;51.098;14.506;2022-09-29T06:31:21;6.40;99.90
34873;DHT22;21084;51.098;14.506;2022-09-29T06:33:51;6.40;99.90
34873;DHT22;21084;51.098;14.506;2022-09-29T06:36:21;6.50;99.90
34873;DHT22;21084;51.098;14.506;2022-09-29T06:39:09;6.70;99.90
34873;DHT22;21084;51.098;14.506;2022-09-29T06:41:37;6.90;99.90
34873;DHT22;21084;51.098;14.506;2022-09-29T06:44:05;7.00;99.90
34873;DHT22;21084;51.098;14.506;2022-09-29T06:46:33;7.10;99.90
34873;DHT22;21084;51.098;14.506;2022-09-29T06:49:02;7.10;99.90
34873;DHT22;21084;51.098;14.506;2022-09-29T06:51:30;7.20;99.90
34873;DHT22;21084;51.098;14.506;2022-09-29T06:54:12;7.60;99.90
34873;DHT22;21084;51.098;14.506;2022-09-29T06:56:41;8.10;99.90
34873;DHT22;21084;51.098;14.506;2022-09-29T06:59:09;8.70;99.90
34873;DHT22;21084;51.098;14.506;2022-09-29T07:01:37;9.20;99.90
34873;DHT22;21084;51.098;14.506;2022-09-29T07:04:06;9.60;99.90
34873;DHT22;21084;51.098;14.506;2022-09-29T07:06:34;10.00;99.90
34873;DHT22;21084;51.098;14.506;2022-09-29T07:09:02;10.30;99.90
34873;DHT22;21084;51.098;14.506;2022-09-29T07:11:30;10.80;99.90
34873;DHT22;21084;51.098;14.506;2022-09-29T07:13:58;11.10;99.90
34873;DHT22;21084;51.098;14.506;2022-09-29T07:16:26;11.50;99.90
34873;DHT22;21084;51.098;14.506;2022-09-29T07:18:54;11.80;99.90
34873;DHT22;21084;51.098;14.506;2022-09-29T07:21:23;11.60;99.90
34873;DHT22;21084;51.098;14.506;2022-09-29T07:23:51;11.50;99.90
34873;DHT22;21084;51.098;14.506;2022-09-29T07:26:22;11.40;99.90
34873;DHT22;21084;51.098;14.506;2022-09-29T07:28:50;11.00;99.90
34873;DHT22;21084;51.098;14.506;2022-09-29T07:31:19;10.70;99.90
34873;DHT22;21084;51.098;14.506;2022-09-29T07:33:49;10.70;99.90
34873;DHT22;21084;51.098;14.506;2022-09-29T07:36:19;11.00;99.90
34873;DHT22;21084;51.098;14.506;2022-09-29T07:38:50;11.50;99.90
34873;DHT22;21084;51.098;14.506;2022-09-29T07:41:20;11.80;99.90
34873;DHT22;21084;51.098;14.506;2022-09-29T07:43:49;12.00;99.90
34873;DHT22;21084;51.098;14.506;2022-09-29T07:46:17;11.90;99.90
34873;DHT22;21084;51.098;14.506;2022-09-29T07:48:45;11.70;99.90
34873;DHT22;21084;51.098;14.506;2022-09-29T07:51:14;11.50;99.90
34873;DHT22;21084;51.098;14.506;2022-09-29T07:53:43;11.70;99.90
34873;DHT22;21084;51.098;14.506;2022-09-29T07:56:14;11.90;99.90
34873;DHT22;21084;51.098;14.506;2022-09-29T07:58:44;12.40;99.90
34873;DHT22;21084;51.098;14.506;2022-09-29T08:01:13;12.90;99.90
34873;DHT22;21084;51.098;14.506;2022-09-29T08:03:43;12.90;99.90
34873;DHT22;21084;51.098;14.506;2022-09-29T08:06:12;12.90;99.90
34873;DHT22;21084;51.098;14.506;2022-09-29T08:08:41;13.40;99.90
34873;DHT22;21084;51.098;14.506;2022-09-29T08:11:27;13.80;99.90
34873;DHT22;21084;51.098;14.506;2022-09-29T08:13:59;13.90;99.90
34873;DHT22;21084;51.098;14.506;2022-09-29T08:16:27;13.50;99.90
34873;DHT22;21084;51.098;14.506;2022-09-29T08:18:55;13.20;99.90
34873;DHT22;21084;51.098;14.506;2022-09-29T08:21:23;13.00;99.90
34873;DHT22;21084;51.098;14.506;2022-09-29T08:23:52;12.60;99.90
34873;DHT22;21084;51.098;14.506;2022-09-29T08:26:21;12.60;99.90
34873;DHT22;21084;51.098;14.506;2022-09-29T08:29:06;12.60;99.90
34873;DHT22;21084;51.098;14.506;2022-09-29T08:31:35;12.30;99.90
34873;DHT22;21084;51.098;14.506;2022-09-29T08:34:05;12.10;99.90
34873;DHT22;21084;51.098;14.506;2022-09-29T08:36:33;11.90;99.90
34873;DHT22;21084;51.098;14.506;2022-09-29T08:39:02;11.70;99.90
34873;DHT22;21084;51.098;14.506;2022-09-29T08:41:52;11.60;99.90
34873;DHT22;21084;51.098;14.506;2022-09-29T08:44:36;11.30;99.90
34873;DHT22;21084;51.098;14.506;2022-09-29T08:47:14;11.30;99.90
34873;DHT22;21084;51.098;14.506;2022-09-29T08:49:47;11.70;99.90
34873;DHT22;21084;51.098;14.506;2022-09-29T08:52:19;11.70;99.90
34873;DHT22;21084;51.098;14.506;2022-09-29T08:54:52;11.70;99.90
34873;DHT22;21084;51.098;14.506;2022-09-29T08:57:20;11.60;99.90
34873;DHT22;21084;51.098;14.506;2022-09-29T08:59:53;11.50;99.90
34873;DHT22;21084;51.098;14.506;2022-09-29T09:02:44;12.00;99.90
34873;DHT22;21084;51.098;14.506;2022-09-29T09:05:23;12.30;99.90
34873;DHT22;21084;51.098;14.506;2022-09-29T09:08:02;12.70;99.90
34873;DHT22;21084;51.098;14.506;2022-09-29T09:10:38;13.40;99.90
34873;DHT22;21084;51.098;14.506;2022-09-29T09:16:02;15.10;99.90
34873;DHT22;21084;51.098;14.506;2022-09-29T09:18:58;15.40;99.90
34873;DHT22;21084;51.098;14.506;2022-09-29T09:21:39;15.30;99.90
34873;DHT22;21084;51.098;14.506;2022-09-29T09:24:16;15.80;99.90
34873;DHT22;21084;51.098;14.506;2022-09-29T09:26:49;15.30;99.90
34873;DHT22;21084;51.098;14.506;2022-09-29T09:29:23;15.00;99.90
34873;DHT22;21084;51.098;14.506;2022-09-29T09:31:57;14.90;99.90
34873;DHT22;21084;51.098;14.506;2022-09-29T09:34:31;14.80;99.90
34873;DHT22;21084;51.098;14.506;2022-09-29T09:37:15;14.20;99.90
34873;DHT22;21084;51.098;14.506;2022-09-29T09:39:48;13.90;99.90
34873;DHT22;21084;51.098;14.506;2022-09-29T09:42:21;13.70;99.90
34873;DHT22;21084;51.098;14.506;2022-09-29T09:44:54;13.80;99.90
34873;DHT22;21084;51.098;14.506;2022-09-29T09:47:28;14.20;99.90
34873;DHT22;21084;51.098;14.506;2022-09-29T09:49:59;14.40;99.90
34873;DHT22;21084;51.098;14.506;2022-09-29T09:52:32;14.30;99.90
34873;DHT22;21084;51.098;14.506;2022-09-29T09:55:05;14.10;99.90
34873;DHT22;21084;51.098;14.506;2022-09-29T09:57:55;14.00;99.90
34873;DHT22;21084;51.098;14.506;2022-09-29T10:00:29;14.80;99.90
34873;DHT22;21084;51.098;14.506;2022-09-29T10:03:02;14.70;99.90
34873;DHT22;21084;51.098;14.506;2022-09-29T10:05:34;14.50;99.90
34873;DHT22;21084;51.098;14.506;2022-09-29T10:08:05;14.30;99.90
34873;DHT22;21084;51.098;14.506;2022-09-29T10:10:34;14.90;99.90
34873;DHT22;21084;51.098;14.506;2022-09-29T10:13:13;14.90;99.90
34873;DHT22;21084;51.098;14.506;2022-09-29T10:15:46;14.80;99.90
34873;DHT22;21084;51.098;14.506;2022-09-29T10:18:20;15.10;99.90
34873;DHT22;21084;51.098;14.506;2022-09-29T10:20:50;15.00;99.90
34873;DHT22;21084;51.098;14.506;2022-09-29T10:23:29;14.80;99.90
34873;DHT22;21084;51.098;14.506;2022-09-29T10:26:00;14.70;99.90
34873;DHT22;21084;51.098;14.506;2022-09-29T10:28:37;14.30;99.90
34873;DHT22;21084;51.098;14.506;2022-09-29T10:31:16;14.40;99.90
34873;DHT22;21084;51.098;14.506;2022-09-29T10:33:51;14.40;99.90
34873;DHT22;21084;51.098;14.506;2022-09-29T10:36:20;14.40;99.90
34873;DHT22;21084;51.098;14.506;2022-09-29T10:38:50;14.00;99.90
34873;DHT22;21084;51.098;14.506;2022-09-29T10:41:19;14.00;99.90
34873;DHT22;21084;51.098;14.506;2022-09-29T10:43:48;14.20;99.90
34873;DHT22;21084;51.098;14.506;2022-09-29T10:46:35;14.60;99.90
34873;DHT22;21084;51.098;14.506;2022-09-29T10:49:14;15.20;99.90
34873;DHT22;21084;51.098;14.506;2022-09-29T10:51:52;16.80;99.90
34873;DHT22;21084;51.098;14.506;2022-09-29T10:54:24;18.30;99.90
34873;DHT22;21084;51.098;14.506;2022-09-29T10:56:54;18.60;99.90
34873;DHT22;21084;51.098;14.506;2022-09-29T10:59:23;19.40;99.90
34873;DHT22;21084;51.098;14.506;2022-09-29T11:01:54;19.10;99.90
34873;DHT22;21084;51.098;14.506;2022-09-29T11:04:27;20.10;99.90
34873;DHT22;21084;51.098;14.506;2022-09-29T11:06:56;20.60;99.90
34873;DHT22;21084;51.098;14.506;2022-09-29T11:09:37;21.30;99.90
34873;DHT22;21084;51.098;14.506;2022-09-29T11:12:25;20.50;99.90
34873;DHT22;21084;51.098;14.506;2022-09-29T11:14:53;20.80;99.90
34873;DHT22;21084;51.098;14.506;2022-09-29T11:17:23;18.30;99.90
34873;DHT22;21084;51.098;14.506;2022-09-29T11:19:55;17.40;99.90
34873;DHT22;21084;51.098;14.506;2022-09-29T11:22:40;16.40;99.90
34873;DHT22;21084;51.098;14.506;2022-09-29T11:25:42;16.40;99.90
34873;DHT22;21084;51.098;14.506;2022-09-29T11:28:31;16.50;99.90
34873;DHT22;21084;51.098;14.506;2022-09-29T11:31:12;16.10;99.90
34873;DHT22;21084;51.098;14.506;2022-09-29T11:33:49;15.70;99.90
34873;DHT22;21084;51.098;14.506;2022-09-29T11:36:31;15.20;99.90
34873;DHT22;21084;51.098;14.506;2022-09-29T11:39:15;14.30;99.90
34873;DHT22;21084;51.098;14.506;2022-09-29T11:41:57;14.10;99.90
34873;DHT22;21084;51.098;14.506;2022-09-29T11:44:54;14.20;99.90
34873;DHT22;21084;51.098;14.506;2022-09-29T11:47:45;13.80;99.90
34873;DHT22;21084;51.098;14.506;2022-09-29T11:50:22;14.10;99.90
34873;DHT22;21084;51.098;14.506;2022-09-29T11:53:15;14.50;99.90
34873;DHT22;21084;51.098;14.506;2022-09-29T11:55:55;14.60;99.90
34873;DHT22;21084;51.098;14.506;2022-09-29T11:58:34;14.30;99.90
34873;DHT22;21084;51.098;14.506;2022-09-29T12:01:18;14.60;99.90
34873;DHT22;21084;51.098;14.506;2022-09-29T12:03:54;14.70;99.90
34873;DHT22;21084;51.098;14.506;2022-09-29T12:06:52;14.60;99.90
34873;DHT22;21084;51.098;14.506;2022-09-29T12:12:18;14.50;99.90
34873;DHT22;21084;51.098;14.506;2022-09-29T12:15:10;14.30;99.90
34873;DHT22;21084;51.098;14.506;2022-09-29T12:17:45;14.00;99.90
34873;DHT22;21084;51.098;14.506;2022-09-29T12:20:18;14.30;99.90
34873;DHT22;21084;51.098;14.506;2022-09-29T12:22:47;14.50;99.90
34873;DHT22;21084;51.098;14.506;2022-09-29T12:25:18;14.70;99.90
34873;DHT22;21084;51.098;14.506;2022-09-29T12:27:53;14.90;99.90
34873;DHT22;21084;51.098;14.506;2022-09-29T12:30:23;15.00;99.90
34873;DHT22;21084;51.098;14.506;2022-09-29T12:33:01;15.20;99.90
34873;DHT22;21084;51.098;14.506;2022-09-29T12:35:34;15.40;99.90
34873;DHT22;21084;51.098;14.506;2022-09-29T12:38:14;15.50;99.90
34873;DHT22;21084;51.098;14.506;2022-09-29T12:40:48;15.70;99.90
34873;DHT22;21084;51.098;14.506;2022-09-29T12:43:24;15.20;99.90
34873;DHT22;21084;51.098;14.506;2022-09-29T12:45:57;14.40;99.90
34873;DHT22;21084;51.098;14.506;2022-09-29T12:48:42;14.70;99.90
34873;DHT22;21084;51.098;14.506;2022-09-29T12:51:15;14.80;99.90
34873;DHT22;21084;51.098;14.506;2022-09-29T12:53:53;14.70;99.90
34873;DHT22;21084;51.098;14.506;2022-09-29T12:56:27;14.40;99.90
34873;DHT22;21084;51.098;14.506;2022-09-29T12:59:01;14.30;99.90
34873;DHT22;21084;51.098;14.506;2022-09-29T13:01:34;15.60;99.90
34873;DHT22;21084;51.098;14.506;2022-09-29T13:07:40;18.30;99.90
34873;DHT22;21084;51.098;14.506;2022-09-29T13:10:36;17.70;99.90
34873;DHT22;21084;51.098;14.506;2022-09-29T13:16:12;16.80;99.90
34873;DHT22;21084;51.098;14.506;2022-09-29T13:22:32;16.60;99.90
34873;DHT22;21084;51.098;14.506;2022-09-29T13:25:13;16.20;99.90
34873;DHT22;21084;51.098;14.506;2022-09-29T13:27:44;16.10;99.90
34873;DHT22;21084;51.098;14.506;2022-09-29T13:30:16;15.90;99.90
34873;DHT22;21084;51.098;14.506;2022-09-29T13:32:46;15.60;99.90
34873;DHT22;21084;51.098;14.506;2022-09-29T13:35:17;15.20;99.90
34873;DHT22;21084;51.098;14.506;2022-09-29T13:37:48;14.70;99.90
34873;DHT22;21084;51.098;14.506;2022-09-29T13:40:21;14.20;99.90
34873;DHT22;21084;51.098;14.506;2022-09-29T13:42:50;14.20;99.90
34873;DHT22;21084;51.098;14.506;2022-09-29T13:45:41;14.10;99.90
34873;DHT22;21084;51.098;14.506;2022-09-29T13:48:41;14.30;99.90
34873;DHT22;21084;51.098;14.506;2022-09-29T13:51:27;14.40;99.90
34873;DHT22;21084;51.098;14.506;2022-09-29T13:57:18;14.40;99.90
34873;DHT22;21084;51.098;14.506;2022-09-29T14:00:24;14.10;99.90
34873;DHT22;21084;51.098;14.506;2022-09-29T14:03:24;14.00;99.90
34873;DHT22;21084;51.098;14.506;2022-09-29T14:06:15;14.00;99.90
34873;DHT22;21084;51.098;14.506;2022-09-29T14:09:06;13.60;99.90
34873;DHT22;21084;51.098;14.506;2022-09-29T14:11:42;13.50;99.90
34873;DHT22;21084;51.098;14.506;2022-09-29T14:14:15;13.00;99.90
34873;DHT22;21084;51.098;14.506;2022-09-29T14:16:49;12.70;99.90
34873;DHT22;21084;51.098;14.506;2022-09-29T14:19:37;12.70;99.90
34873;DHT22;21084;51.098;14.506;2022-09-29T14:25:31;13.40;99.90
34873;DHT22;21084;51.098;14.506;2022-09-29T14:28:04;13.60;99.90
34873;DHT22;21084;51.098;14.506;2022-09-29T14:30:41;13.70;99.90
34873;DHT22;21084;51.098;14.506;2022-09-29T14:33:13;13.70;99.90
34873;DHT22;21084;51.098;14.506;2022-09-29T14:35:48;13.70;99.90
34873;DHT22;21084;51.098;14.506;2022-09-29T14:38:19;13.70;99.90
34873;DHT22;21084;51.098;14.506;2022-09-29T14:40:55;13.70;99.90
34873;DHT22;21084;51.098;14.506;2022-09-29T14:43:26;13.70;99.90
34873;DHT22;21084;51.098;14.506;2022-09-29T14:46:21;13.70;99.90
34873;DHT22;21084;51.098;14.506;2022-09-29T14:49:23;13.70;99.90
34873;DHT22;21084;51.098;14.506;2022-09-29T14:52:18;13.60;99.90
34873;DHT22;21084;51.098;14.506;2022-09-29T14:54:57;13.40;99.90
34873;DHT22;21084;51.098;14.506;2022-09-29T14:57:37;13.40;99.90
34873;DHT22;21084;51.098;14.506;2022-09-29T15:00:11;13.30;99.90
34873;DHT22;21084;51.098;14.506;2022-09-29T15:02:45;13.20;99.90
34873;DHT22;21084;51.098;14.506;2022-09-29T15:05:27;13.20;99.90
34873;DHT22;21084;51.098;14.506;2022-09-29T15:08:00;13.20;99.90
34873;DHT22;21084;51.098;14.506;2022-09-29T15:10:29;13.20;99.90
34873;DHT22;21084;51.098;14.506;2022-09-29T15:13:16;13.20;99.90
34873;DHT22;21084;51.098;14.506;2022-09-29T15:15:47;13.30;99.90
34873;DHT22;21084;51.098;14.506;2022-09-29T15:18:26;13.30;99.90
34873;DHT22;21084;51.098;14.506;2022-09-29T15:20:57;13.20;99.90
34873;DHT22;21084;51.098;14.506;2022-09-29T15:24:02;13.10;99.90
34873;DHT22;21084;51.098;14.506;2022-09-29T15:26:36;13.00;99.90
34873;DHT22;21084;51.098;14.506;2022-09-29T15:29:05;12.80;99.90
34873;DHT22;21084;51.098;14.506;2022-09-29T15:31:34;12.80;99.90
34873;DHT22;21084;51.098;14.506;2022-09-29T15:34:03;12.70;99.90
34873;DHT22;21084;51.098;14.506;2022-09-29T15:36:34;12.70;99.90
34873;DHT22;21084;51.098;14.506;2022-09-29T15:39:07;12.70;99.90
34873;DHT22;21084;51.098;14.506;2022-09-29T15:41:39;12.70;99.90
34873;DHT22;21084;51.098;14.506;2022-09-29T15:44:12;12.60;99.90
34873;DHT22;21084;51.098;14.506;2022-09-29T15:46:47;12.60;99.90
34873;DHT22;21084;51.098;14.506;2022-09-29T15:49:17;12.60;99.90
34873;DHT22;21084;51.098;14.506;2022-09-29T15:51:55;12.50;99.90
34873;DHT22;21084;51.098;14.506;2022-09-29T15:54:28;12.50;99.90
34873;DHT22;21084;51.098;14.506;2022-09-29T15:57:00;12.50;99.90
34873;DHT22;21084;51.098;14.506;2022-09-29T15:59:47;12.50;99.90
34873;DHT22;21084;51.098;14.506;2022-09-29T16:02:21;12.50;99.90
34873;DHT22;21084;51.098;14.506;2022-09-29T16:04:53;12.40;99.90
34873;DHT22;21084;51.098;14.506;2022-09-29T16:07:25;12.40;99.90
34873;DHT22;21084;51.098;14.506;2022-09-29T16:10:03;12.30;99.90
34873;DHT22;21084;51.098;14.506;2022-09-29T16:12:37;12.30;99.90
34873;DHT22;21084;51.098;14.506;2022-09-29T16:15:15;12.10;99.90
34873;DHT22;21084;51.098;14.506;2022-09-29T16:17:47;12.00;99.90
34873;DHT22;21084;51.098;14.506;2022-09-29T16:20:20;11.80;99.90
34873;DHT22;21084;51.098;14.506;2022-09-29T16:22:49;11.70;99.90
34873;DHT22;21084;51.098;14.506;2022-09-29T16:25:23;11.60;99.90
34873;DHT22;21084;51.098;14.506;2022-09-29T16:27:54;11.50;99.90